Time;durP1;ratioP1;P1;durP2;ratioP2;P2;SDS_P1;SDS_P2;PMS_P1;PMS_P2;Temp;Humidity;BMP_temperature;BMP_pressure;BME280_temperature;BME280_humidity;BME280_pressure;Samples;Min_cycle;Max_cycle;Signal;HPM_P1;HPM_P2
2021/12/09 00:00:49;;;;;;;3.45;1.00;;;17.00;76.30;;;;;;4943956;28;96575;-45
2021/12/09 00:03:22;;;;;;;2.42;0.80;;;17.00;76.30;;;;;;4948264;28;95936;-41
2021/12/09 00:05:55;;;;;;;5.10;1.27;;;17.00;76.20;;;;;;4947443;28;95754;-41
2021/12/09 00:08:28;;;;;;;2.63;1.15;;;17.00;76.20;;;;;;4947953;28;96543;-42
2021/12/09 00:11:00;;;;;;;4.15;1.05;;;17.00;76.30;;;;;;4946169;28;95829;-41
2021/12/09 00:13:31;;;;;;;2.13;0.90;;;17.00;76.30;;;;;;4947877;28;95988;-43
2021/12/09 00:16:04;;;;;;;2.97;1.25;;;17.00;76.20;;;;;;4941427;28;95939;-44
2021/12/09 00:18:36;;;;;;;3.42;0.90;;;17.00;76.20;;;;;;4948380;28;98005;-43
2021/12/09 00:21:08;;;;;;;4.55;1.70;;;17.00;76.20;;;;;;4941404;28;95887;-41
2021/12/09 00:23:38;;;;;;;4.57;1.70;;;17.00;76.20;;;;;;4950291;28;95308;-43
2021/12/09 00:26:09;;;;;;;5.97;1.65;;;17.00;76.10;;;;;;4950071;28;95961;-44
2021/12/09 00:28:40;;;;;;;2.08;1.08;;;17.00;76.10;;;;;;4952213;28;95822;-40
2021/12/09 00:31:11;;;;;;;3.92;1.02;;;17.00;76.10;;;;;;4930267;28;95833;-39
2021/12/09 00:33:44;;;;;;;4.55;1.00;;;17.00;76.10;;;;;;4949424;28;95873;-40
2021/12/09 00:36:26;;;;;;;2.83;1.23;;;17.00;76.10;;;;;;4951979;28;95814;-41
2021/12/09 00:38:58;;;;;;;4.78;1.52;;;17.00;76.10;;;;;;4949136;28;96024;-41
2021/12/09 00:41:28;;;;;;;5.03;1.10;;;17.00;76.10;;;;;;4950489;28;96095;-41
2021/12/09 00:43:58;;;;;;;1.75;1.02;;;17.00;76.00;;;;;;4949933;28;95471;-41
2021/12/09 00:46:28;;;;;;;5.07;1.38;;;17.00;76.00;;;;;;4946791;28;95828;-45
2021/12/09 00:48:58;;;;;;;2.08;0.88;;;17.00;76.00;;;;;;4952519;28;96794;-43
2021/12/09 00:51:28;;;;;;;3.75;1.33;;;17.00;76.00;;;;;;4951676;28;95778;-41
2021/12/09 00:53:59;;;;;;;3.97;1.20;;;17.00;76.00;;;;;;4951361;28;95711;-43
2021/12/09 00:56:31;;;;;;;5.63;1.00;;;17.00;75.90;;;;;;4951143;28;96060;-42
2021/12/09 00:59:02;;;;;;;2.53;1.10;;;17.00;76.00;;;;;;4949208;28;97533;-43
2021/12/09 01:01:34;;;;;;;;;;;17.00;75.90;;;;;;4944440;28;99288;-42
2021/12/09 01:04:06;;;;;;;;;;;17.00;76.60;;;;;;4953554;28;95808;-43
2021/12/09 01:06:39;;;;;;;3.00;1.20;;;17.00;76.00;;;;;;4949683;28;95888;-41
2021/12/09 01:09:10;;;;;;;5.88;1.23;;;17.00;76.00;;;;;;4948122;28;96064;-41
2021/12/09 01:11:40;;;;;;;3.63;1.17;;;17.00;76.00;;;;;;4951100;28;95595;-42
2021/12/09 01:14:12;;;;;;;2.65;0.90;;;17.00;75.90;;;;;;4950737;28;97728;-41
2021/12/09 01:16:43;;;;;;;2.03;0.95;;;17.00;75.90;;;;;;4944505;28;95629;-40
2021/12/09 01:19:14;;;;;;;2.85;0.95;;;17.00;76.00;;;;;;4951033;28;95896;-40
2021/12/09 01:21:45;;;;;;;4.93;1.13;;;17.00;76.00;;;;;;4949581;28;95269;-41
2021/12/09 01:24:15;;;;;;;2.13;1.05;;;17.00;76.00;;;;;;4949761;28;95783;-44
2021/12/09 01:26:48;;;;;;;3.63;1.55;;;17.00;76.00;;;;;;4950633;28;95550;-42
2021/12/09 01:29:29;;;;;;;2.22;0.95;;;17.00;76.10;;;;;;4946171;28;96677;-40
2021/12/09 01:32:04;;;;;;;3.92;0.90;;;17.00;76.10;;;;;;4930789;28;96048;-45
2021/12/09 01:34:37;;;;;;;4.80;1.00;;;17.00;76.00;;;;;;4949920;28;96037;-42
2021/12/09 01:37:07;;;;;;;3.67;0.90;;;17.00;76.00;;;;;;4950856;28;95341;-44
2021/12/09 01:39:37;;;;;;;3.45;1.10;;;17.00;76.10;;;;;;4949812;28;96535;-42
2021/12/09 01:42:08;;;;;;;3.08;0.82;;;17.00;76.10;;;;;;4947769;28;96043;-42
2021/12/09 01:44:39;;;;;;;6.78;1.40;;;17.00;76.10;;;;;;4950314;28;95507;-44
2021/12/09 01:47:09;;;;;;;4.10;1.30;;;17.00;76.10;;;;;;4947265;28;95889;-39
2021/12/09 01:49:39;;;;;;;2.83;0.88;;;17.00;76.20;;;;;;4949156;28;96507;-42
2021/12/09 01:52:10;;;;;;;4.97;1.20;;;17.00;76.20;;;;;;4951661;28;96358;-41
2021/12/09 01:54:42;;;;;;;3.35;1.27;;;17.00;76.20;;;;;;4951434;28;96031;-39
2021/12/09 01:57:13;;;;;;;3.30;1.48;;;17.00;76.70;;;;;;4947515;28;97486;-42
2021/12/09 01:59:43;;;;;;;4.00;1.43;;;17.00;76.30;;;;;;4947263;28;96483;-43
2021/12/09 02:02:15;;;;;;;2.90;1.40;;;17.00;76.30;;;;;;4944033;28;95922;-42
2021/12/09 02:04:46;;;;;;;3.28;1.00;;;17.00;76.30;;;;;;4949264;28;95780;-42
2021/12/09 02:07:18;;;;;;;2.63;1.23;;;17.00;76.30;;;;;;4950481;28;95814;-44
2021/12/09 02:09:48;;;;;;;4.70;1.20;;;17.00;76.30;;;;;;4948969;28;95912;-46
2021/12/09 02:12:18;;;;;;;2.45;1.10;;;17.00;76.30;;;;;;4950041;28;95724;-42
2021/12/09 02:14:52;;;;;;;5.72;1.45;;;17.00;76.40;;;;;;4950400;28;97963;-39
2021/12/09 02:17:25;;;;;;;4.18;1.35;;;17.00;76.50;;;;;;4942795;28;98753;-42
2021/12/09 02:19:59;;;;;;;4.35;1.30;;;17.00;76.40;;;;;;4949240;28;97773;-40
2021/12/09 02:22:31;;;;;;;3.80;1.10;;;17.00;76.40;;;;;;4948137;28;96202;-42
2021/12/09 02:25:01;;;;;;;2.40;0.93;;;17.00;76.30;;;;;;4950064;28;97781;-43
2021/12/09 02:27:32;;;;;;;6.30;1.67;;;17.00;76.40;;;;;;4950439;28;98172;-40
2021/12/09 02:30:03;;;;;;;;;;;16.90;76.40;;;;;;4944075;28;96007;-39
2021/12/09 02:32:34;;;;;;;4.00;1.08;;;17.00;76.50;;;;;;4939427;28;96140;-39
2021/12/09 02:35:05;;;;;;;;;;;16.90;76.50;;;;;;4948878;28;95791;-40
2021/12/09 02:37:35;;;;;;;2.63;0.90;;;16.90;76.40;;;;;;4950305;28;95340;-40
2021/12/09 02:40:07;;;;;;;3.63;0.90;;;17.00;76.60;;;;;;4949393;28;95901;-43
2021/12/09 02:42:38;;;;;;;4.80;1.20;;;17.00;76.60;;;;;;4949428;28;95496;-44
2021/12/09 02:45:11;;;;;;;2.60;1.53;;;16.90;76.70;;;;;;4949605;28;95518;-42
2021/12/09 02:47:41;;;;;;;4.28;0.93;;;17.00;76.70;;;;;;4946724;28;95553;-43
2021/12/09 02:50:10;;;;;;;3.85;1.20;;;17.00;76.80;;;;;;4950602;28;96728;-42
2021/12/09 02:52:41;;;;;;;3.35;1.08;;;16.90;76.70;;;;;;4948218;28;95873;-45
2021/12/09 02:55:13;;;;;;;0.88;0.60;;;17.00;76.80;;;;;;4949362;28;95792;-40
2021/12/09 02:57:46;;;;;;;4.55;1.05;;;16.90;76.70;;;;;;4950680;28;95472;-42
2021/12/09 03:00:17;;;;;;;5.03;1.13;;;16.90;76.70;;;;;;4941524;28;96736;-40
2021/12/09 03:02:48;;;;;;;3.83;0.87;;;16.90;76.80;;;;;;4949214;28;102283;-45
2021/12/09 03:05:20;;;;;;;2.45;1.00;;;16.90;76.80;;;;;;4949210;28;95914;-42
2021/12/09 03:07:51;;;;;;;5.10;1.00;;;16.90;76.80;;;;;;4949991;28;95893;-39
2021/12/09 03:10:25;;;;;;;4.53;1.30;;;16.90;76.90;;;;;;4947302;28;95890;-44
2021/12/09 03:13:00;;;;;;;3.42;0.93;;;17.00;76.90;;;;;;4948625;28;96020;-42
2021/12/09 03:15:35;;;;;;;1.33;0.88;;;17.00;77.00;;;;;;4942830;28;96610;-39
2021/12/09 03:18:07;;;;;;;3.33;0.85;;;16.90;77.00;;;;;;4949955;28;95688;-44
2021/12/09 03:20:38;;;;;;;2.00;0.80;;;17.00;77.00;;;;;;4948554;28;97696;-43
2021/12/09 03:23:08;;;;;;;2.50;1.17;;;16.90;77.00;;;;;;4947817;28;96121;-42
2021/12/09 03:25:39;;;;;;;4.10;1.05;;;17.00;77.40;;;;;;4948690;28;95775;-39
2021/12/09 03:28:10;;;;;;;4.97;1.20;;;16.90;77.00;;;;;;4946950;28;95887;-40
2021/12/09 03:30:41;;;;;;;;;;;17.00;77.10;;;;;;4930042;28;96218;-40
2021/12/09 03:33:13;;;;;;;3.53;0.82;;;16.90;77.10;;;;;;4944142;28;95976;-42
2021/12/09 03:35:44;;;;;;;2.25;0.90;;;17.00;77.20;;;;;;4948536;28;95816;-43
2021/12/09 03:38:14;;;;;;;1.60;0.88;;;17.00;77.20;;;;;;4948894;28;95706;-42
2021/12/09 03:40:44;;;;;;;2.88;1.25;;;17.00;77.20;;;;;;4948889;28;95940;-43
2021/12/09 03:43:15;;;;;;;2.63;1.05;;;17.00;77.20;;;;;;4946206;28;95215;-42
2021/12/09 03:45:46;;;;;;;3.55;0.98;;;17.00;77.10;;;;;;4942976;28;96470;-43
2021/12/09 03:48:17;;;;;;;2.53;0.90;;;17.00;77.20;;;;;;4951231;28;95552;-42
2021/12/09 03:50:46;;;;;;;3.75;0.77;;;17.00;77.20;;;;;;4949264;28;97595;-45
2021/12/09 03:53:16;;;;;;;3.28;0.70;;;17.00;77.20;;;;;;4947780;28;95675;-43
2021/12/09 03:55:47;;;;;;;1.80;0.90;;;17.00;77.20;;;;;;4949566;28;95793;-41
2021/12/09 03:58:20;;;;;;;1.77;0.90;;;17.00;77.30;;;;;;4952973;28;95871;-40
2021/12/09 04:00:51;;;;;;;3.15;0.63;;;17.00;77.30;;;;;;4949527;28;95911;-41
2021/12/09 04:03:24;;;;;;;3.15;0.98;;;17.00;77.30;;;;;;4955126;28;96145;-40
2021/12/09 04:05:55;;;;;;;4.10;0.88;;;17.00;77.20;;;;;;4954985;28;98008;-41
2021/12/09 04:08:27;;;;;;;2.75;0.80;;;17.00;77.30;;;;;;4953977;28;95882;-44
2021/12/09 04:10:58;;;;;;;3.15;1.10;;;17.00;77.60;;;;;;4952726;28;96282;-40
2021/12/09 04:13:32;;;;;;;1.10;0.55;;;17.00;77.30;;;;;;4954536;28;96155;-39
2021/12/09 04:16:07;;;;;;;1.95;0.68;;;17.00;77.20;;;;;;4946622;28;95279;-41
2021/12/09 04:18:42;;;;;;;2.00;0.57;;;17.10;77.20;;;;;;4955524;28;95551;-43
2021/12/09 04:21:12;;;;;;;3.70;1.20;;;17.10;77.20;;;;;;4949269;28;95912;-41
2021/12/09 04:23:43;;;;;;;3.92;0.90;;;17.00;77.10;;;;;;4954109;28;95549;-42
2021/12/09 04:26:14;;;;;;;1.55;0.80;;;17.10;77.20;;;;;;4952807;28;95681;-40
2021/12/09 04:28:45;;;;;;;5.22;1.10;;;17.00;77.20;;;;;;4954669;28;95360;-42
2021/12/09 04:31:15;;;;;;;1.63;1.08;;;17.10;77.20;;;;;;4934201;28;96018;-44
2021/12/09 04:33:47;;;;;;;1.25;0.68;;;17.10;77.20;;;;;;4951517;28;95987;-42
2021/12/09 04:36:21;;;;;;;2.35;1.05;;;17.00;77.20;;;;;;4954888;28;95772;-43
2021/12/09 04:38:52;;;;;;;2.47;0.88;;;17.00;77.20;;;;;;4954092;28;95380;-41
2021/12/09 04:41:23;;;;;;;1.83;0.60;;;17.00;77.10;;;;;;4952938;28;97186;-44
2021/12/09 04:43:54;;;;;;;2.67;0.88;;;17.10;77.20;;;;;;4953603;28;95914;-42
2021/12/09 04:46:26;;;;;;;2.08;0.90;;;17.00;77.20;;;;;;4950478;28;98661;-42
2021/12/09 04:48:56;;;;;;;2.75;1.10;;;17.10;77.20;;;;;;4955360;28;95771;-41
2021/12/09 04:51:27;;;;;;;1.48;0.82;;;17.00;77.20;;;;;;4955301;28;96052;-42
2021/12/09 04:53:56;;;;;;;2.63;1.08;;;17.10;77.20;;;;;;4954645;28;95972;-42
2021/12/09 04:56:27;;;;;;;2.97;0.90;;;17.00;77.20;;;;;;4956568;28;95689;-45
2021/12/09 04:58:58;;;;;;;2.67;0.53;;;17.10;77.20;;;;;;4953160;28;95643;-45
2021/12/09 05:01:29;;;;;;;0.98;0.60;;;17.00;77.10;;;;;;4947791;28;99101;-41
2021/12/09 05:04:02;;;;;;;1.33;1.00;;;17.10;77.20;;;;;;4955289;28;96067;-41
2021/12/09 05:06:36;;;;;;;2.80;1.25;;;17.00;77.30;;;;;;4953724;28;95986;-41
2021/12/09 05:09:10;;;;;;;2.38;0.68;;;17.10;77.20;;;;;;4951910;28;95393;-44
2021/12/09 05:14:12;;;;;;;1.35;0.93;;;17.10;77.20;;;;;;4950785;28;96043;-42
2021/12/09 05:16:46;;;;;;;1.40;0.75;;;17.00;77.10;;;;;;4944158;28;95435;-42
2021/12/09 05:19:18;;;;;;;2.17;0.85;;;17.10;77.20;;;;;;4951132;28;95501;-44
2021/12/09 05:21:50;;;;;;;2.15;0.68;;;17.00;77.10;;;;;;4948580;28;95964;-42
2021/12/09 05:24:20;;;;;;;0.85;0.50;;;17.10;77.20;;;;;;4951316;28;95997;-39
2021/12/09 05:26:54;;;;;;;2.55;0.63;;;17.00;77.10;;;;;;4951490;28;95354;-41
2021/12/09 05:29:32;;;;;;;1.20;0.85;;;17.10;77.20;;;;;;4947096;28;95309;-41
2021/12/09 05:32:12;;;;;;;1.05;0.60;;;17.00;77.10;;;;;;4947555;28;99985;-38
2021/12/09 05:34:45;;;;;;;0.85;0.63;;;17.10;77.10;;;;;;4947890;28;96014;-41
2021/12/09 05:37:24;;;;;;;1.08;0.50;;;17.10;77.10;;;;;;4950917;28;95352;-42
2021/12/09 05:39:55;;;;;;;2.00;0.80;;;17.10;77.00;;;;;;4950983;28;95393;-41
2021/12/09 05:42:31;;;;;;;1.75;0.70;;;17.10;77.10;;;;;;4950975;28;96428;-45
2021/12/09 05:45:01;;;;;;;2.13;1.05;;;17.10;77.00;;;;;;4950367;28;95355;-40
2021/12/09 05:47:32;;;;;;;2.43;0.80;;;17.10;76.90;;;;;;4945979;28;96194;-43
2021/12/09 05:50:11;;;;;;;3.05;0.95;;;17.00;76.80;;;;;;4950232;28;95955;-40
2021/12/09 05:52:41;;;;;;;3.03;0.85;;;17.00;76.80;;;;;;4948913;28;96645;-43
2021/12/09 05:55:13;;;;;;;3.20;0.80;;;17.10;76.80;;;;;;4951327;28;95856;-41
2021/12/09 05:57:45;;;;;;;3.28;1.27;;;17.10;76.80;;;;;;4951822;28;95635;-44
2021/12/09 06:00:16;;;;;;;1.58;0.90;;;17.10;76.70;;;;;;4950442;28;95757;-42
2021/12/09 06:02:48;;;;;;;1.15;0.55;;;17.10;76.70;;;;;;4945448;28;96075;-41
2021/12/09 06:05:20;;;;;;;1.90;0.75;;;17.10;76.70;;;;;;4949740;28;95784;-44
2021/12/09 06:07:53;;;;;;;3.88;0.75;;;17.00;76.60;;;;;;4948350;28;95587;-41
2021/12/09 06:10:23;;;;;;;;;;;17.00;76.60;;;;;;4949199;28;96142;-46
2021/12/09 06:12:54;;;;;;;2.70;0.50;;;17.10;76.60;;;;;;4951820;28;96018;-44
2021/12/09 06:15:25;;;;;;;2.03;0.82;;;17.00;76.50;;;;;;4944185;28;95847;-40
2021/12/09 06:17:56;;;;;;;1.65;0.60;;;17.00;76.50;;;;;;4949652;28;95833;-41
2021/12/09 06:20:28;;;;;;;2.85;0.52;;;17.10;76.50;;;;;;4948071;28;95601;-41
2021/12/09 06:23:00;;;;;;;2.60;0.85;;;17.10;76.60;;;;;;4948635;28;95937;-43
2021/12/09 06:25:32;;;;;;;;;;;17.00;76.40;;;;;;4950079;28;95962;-41
2021/12/09 06:28:02;;;;;;;;;;;17.00;76.40;;;;;;4952562;28;95531;-41
2021/12/09 06:30:32;;;;;;;2.25;0.82;;;17.00;76.30;;;;;;4934153;28;96014;-41
2021/12/09 06:33:05;;;;;;;2.85;0.90;;;17.00;76.40;;;;;;4936008;28;102428;-41
2021/12/09 06:35:37;;;;;;;4.88;1.25;;;17.10;76.40;;;;;;4946667;28;96777;-38
2021/12/09 06:38:12;;;;;;;1.83;0.60;;;17.00;76.30;;;;;;4949081;28;95929;-45
2021/12/09 06:40:44;;;;;;;1.88;0.60;;;17.00;76.30;;;;;;4948702;28;95744;-43
2021/12/09 06:43:15;;;;;;;1.13;0.80;;;17.00;76.30;;;;;;4950237;28;96999;-41
2021/12/09 06:45:46;;;;;;;1.92;0.70;;;17.10;76.40;;;;;;4942746;28;97803;-42
2021/12/09 06:48:16;;;;;;;3.40;0.88;;;17.00;76.30;;;;;;4950882;28;96401;-41
2021/12/09 06:50:46;;;;;;;3.20;0.80;;;17.00;76.20;;;;;;4951234;28;95631;-42
2021/12/09 06:53:16;;;;;;;2.53;0.85;;;17.00;76.30;;;;;;4950170;28;96901;-40
2021/12/09 06:55:46;;;;;;;2.80;0.93;;;17.00;76.20;;;;;;4949071;28;95823;-42
2021/12/09 06:58:21;;;;;;;2.03;0.80;;;17.00;76.20;;;;;;4948397;28;95975;-43
2021/12/09 07:00:54;;;;;;;2.75;0.75;;;17.00;76.20;;;;;;4937279;28;95495;-42
2021/12/09 07:03:26;;;;;;;2.63;1.08;;;17.00;76.20;;;;;;4947878;28;96247;-43
2021/12/09 07:06:01;;;;;;;1.08;0.68;;;17.00;76.90;;;;;;4949294;28;95869;-39
2021/12/09 07:08:35;;;;;;;0.80;0.52;;;17.00;76.20;;;;;;4949606;28;95942;-42
2021/12/09 07:11:08;;;;;;;2.58;0.90;;;17.00;76.20;;;;;;4948886;28;95592;-41
2021/12/09 07:13:40;;;;;;;4.78;1.00;;;17.00;76.20;;;;;;4944582;28;96167;-42
2021/12/09 07:16:11;;;;;;;1.48;0.50;;;17.00;76.10;;;;;;4941152;28;96852;-41
2021/12/09 07:18:43;;;;;;;1.77;0.68;;;17.00;76.20;;;;;;4949475;28;95978;-42
2021/12/09 07:21:14;;;;;;;2.75;1.02;;;17.00;76.20;;;;;;4964087;28;95660;-44
2021/12/09 07:23:44;;;;;;;1.48;0.98;;;17.00;76.20;;;;;;4949104;28;96000;-44
2021/12/09 07:26:15;;;;;;;1.45;0.70;;;17.00;76.10;;;;;;4948827;28;96696;-39
2021/12/09 07:28:47;;;;;;;1.05;0.68;;;17.00;76.20;;;;;;4947184;28;95727;-39
2021/12/09 07:31:17;;;;;;;2.20;1.02;;;17.00;76.20;;;;;;4939604;28;95628;-40
2021/12/09 07:33:48;;;;;;;1.50;0.80;;;17.00;76.10;;;;;;4935962;28;95985;-42
2021/12/09 07:36:19;;;;;;;0.55;0.45;;;17.00;76.10;;;;;;4948593;28;95379;-40
2021/12/09 07:38:49;;;;;;;1.15;0.50;;;17.00;76.10;;;;;;4949623;28;95733;-40
2021/12/09 07:41:21;;;;;;;1.95;0.70;;;17.00;76.10;;;;;;4947777;28;96008;-43
2021/12/09 07:43:51;;;;;;;1.23;0.68;;;17.00;76.20;;;;;;4946098;28;96126;-40
2021/12/09 07:46:22;;;;;;;3.15;1.13;;;17.00;76.10;;;;;;4943073;28;98686;-39
2021/12/09 07:48:51;;;;;;;2.42;0.98;;;17.00;76.10;;;;;;4950102;28;95390;-40
2021/12/09 07:51:22;;;;;;;0.90;0.55;;;17.00;76.10;;;;;;4949798;28;95675;-43
2021/12/09 07:53:52;;;;;;;3.08;1.15;;;16.90;76.10;;;;;;4945118;28;95884;-42
2021/12/09 07:56:22;;;;;;;1.70;0.70;;;16.90;76.10;;;;;;4949195;28;96572;-46
2021/12/09 07:58:54;;;;;;;1.20;0.60;;;17.00;76.10;;;;;;4947689;28;95820;-44
2021/12/09 08:01:25;;;;;;;0.95;0.73;;;16.90;76.10;;;;;;4946282;28;96156;-43
2021/12/09 08:03:58;;;;;;;;;;;17.00;76.20;;;;;;4948358;28;96379;-43
2021/12/09 08:06:29;;;;;;;1.40;0.70;;;16.90;76.10;;;;;;4950204;28;95919;-40
2021/12/09 08:09:00;;;;;;;2.08;1.20;;;16.90;76.00;;;;;;4948472;28;95986;-44
2021/12/09 08:11:37;;;;;;;3.67;0.70;;;16.90;76.10;;;;;;4949430;28;95603;-45
2021/12/09 08:14:11;;;;;;;3.70;0.90;;;16.90;76.10;;;;;;4946977;28;95976;-42
2021/12/09 08:16:41;;;;;;;3.80;1.13;;;16.90;76.20;;;;;;4942250;28;95786;-41
2021/12/09 08:19:16;;;;;;;1.08;0.70;;;16.90;76.10;;;;;;4948773;28;95694;-42
2021/12/09 08:21:47;;;;;;;2.28;0.77;;;16.90;76.10;;;;;;4948302;28;95933;-39
2021/12/09 08:24:17;;;;;;;1.83;0.93;;;16.90;76.10;;;;;;4947383;28;96143;-44
2021/12/09 08:26:48;;;;;;;4.00;1.10;;;16.90;76.10;;;;;;4946719;28;96185;-43
2021/12/09 08:29:19;;;;;;;1.38;0.70;;;16.90;76.10;;;;;;4948213;28;95689;-39
2021/12/09 08:31:49;;;;;;;2.80;1.20;;;16.90;76.10;;;;;;4937452;28;95384;-39
2021/12/09 08:34:21;;;;;;;3.70;0.80;;;16.90;76.10;;;;;;4939553;28;96538;-41
2021/12/09 08:36:55;;;;;;;1.45;0.60;;;16.90;76.10;;;;;;4948473;28;95748;-41
2021/12/09 08:39:25;;;;;;;3.95;1.00;;;16.90;76.20;;;;;;4948102;28;95787;-42
2021/12/09 08:41:55;;;;;;;1.33;0.85;;;16.90;76.10;;;;;;4947754;28;95942;-40
2021/12/09 08:44:25;;;;;;;0.60;0.60;;;16.90;76.20;;;;;;4950495;28;96616;-43
2021/12/09 08:46:55;;;;;;;3.70;0.70;;;16.90;76.20;;;;;;4945342;28;95925;-44
2021/12/09 08:49:26;;;;;;;;;;;16.90;76.20;;;;;;4952073;28;95327;-41
2021/12/09 08:51:56;;;;;;;2.28;0.68;;;16.90;76.10;;;;;;4952398;28;95814;-44
2021/12/09 08:54:27;;;;;;;1.42;0.80;;;16.90;76.10;;;;;;4952090;28;96132;-41
2021/12/09 08:57:03;;;;;;;3.58;0.93;;;16.90;76.10;;;;;;4951517;28;95849;-41
2021/12/09 08:59:34;;;;;;;2.20;0.73;;;16.90;76.10;;;;;;4950483;28;96255;-39
2021/12/09 09:02:09;;;;;;;1.98;0.80;;;16.90;76.00;;;;;;4945606;28;95898;-39
2021/12/09 09:04:41;;;;;;;2.22;0.73;;;16.90;76.00;;;;;;4952325;28;96950;-42
2021/12/09 09:07:14;;;;;;;2.22;0.70;;;16.90;76.00;;;;;;4949353;28;95926;-40
2021/12/09 09:09:46;;;;;;;1.48;0.70;;;16.90;76.10;;;;;;4950693;28;95913;-41
2021/12/09 09:12:17;;;;;;;0.83;0.50;;;16.90;76.10;;;;;;4951733;28;95412;-39
2021/12/09 09:14:52;;;;;;;2.13;0.80;;;16.90;76.10;;;;;;4951120;28;95939;-44
2021/12/09 09:17:24;;;;;;;1.23;0.55;;;16.90;76.20;;;;;;4945208;28;96025;-43
2021/12/09 09:19:56;;;;;;;2.20;0.73;;;16.90;76.20;;;;;;4951617;28;95640;-43
2021/12/09 09:22:28;;;;;;;1.33;0.98;;;16.90;76.10;;;;;;4949677;28;97344;-38
2021/12/09 09:24:59;;;;;;;1.73;0.73;;;16.90;76.10;;;;;;4950147;28;96088;-43
2021/12/09 09:27:29;;;;;;;1.90;0.65;;;16.90;76.20;;;;;;4951034;28;95903;-44
2021/12/09 09:30:00;;;;;;;3.65;1.83;;;16.90;76.10;;;;;;4950516;28;95756;-40
2021/12/09 09:32:31;;;;;;;2.67;1.00;;;16.90;76.10;;;;;;4936775;28;95358;-41
2021/12/09 09:35:03;;;;;;;2.50;0.70;;;16.90;76.10;;;;;;4945026;28;95804;-42
2021/12/09 09:37:33;;;;;;;5.28;1.38;;;16.90;76.10;;;;;;4950833;28;95506;-43
2021/12/09 09:40:13;;;;;;;3.17;0.52;;;16.90;76.10;;;;;;4949714;28;95520;-43
2021/12/09 09:42:57;;;;;;;2.03;0.95;;;16.90;76.10;;;;;;4949668;28;95931;-44
2021/12/09 09:45:29;;;;;;;7.07;1.08;;;16.80;76.10;;;;;;4945707;28;95906;-39
2021/12/09 09:47:59;;;;;;;;;;;16.90;76.20;;;;;;4951304;28;101934;-43
2021/12/09 09:50:29;;;;;;;2.55;0.93;;;16.80;76.10;;;;;;4953951;28;95579;-40
2021/12/09 09:53:00;;;;;;;2.17;1.43;;;16.80;76.10;;;;;;4951581;28;96020;-39
2021/12/09 09:55:32;;;;;;;1.23;0.70;;;16.80;76.20;;;;;;4950898;28;95977;-41
2021/12/09 09:58:04;;;;;;;1.63;0.75;;;16.90;76.20;;;;;;4948945;28;96072;-40
2021/12/09 10:00:37;;;;;;;1.48;0.70;;;16.80;76.20;;;;;;4944726;28;95608;-43
2021/12/09 10:03:16;;;;;;;2.47;1.13;;;16.80;76.10;;;;;;4950227;28;95811;-44
2021/12/09 10:05:49;;;;;;;2.20;1.25;;;16.80;76.10;;;;;;4948997;28;96670;-41
2021/12/09 10:08:20;;;;;;;1.20;0.80;;;16.80;76.20;;;;;;4946458;28;95466;-41
2021/12/09 10:10:50;;;;;;;4.15;0.90;;;16.80;76.10;;;;;;4951092;28;95861;-41
2021/12/09 10:13:27;;;;;;;4.60;1.55;;;16.80;76.20;;;;;;4951115;28;95839;-42
2021/12/09 10:16:07;;;;;;;3.70;1.00;;;16.80;76.20;;;;;;4944620;28;97219;-45
2021/12/09 10:18:45;;;;;;;3.85;0.82;;;16.80;76.20;;;;;;4950435;28;95780;-42
2021/12/09 10:21:30;;;;;;;3.83;0.90;;;16.80;76.20;;;;;;4950470;28;95463;-43
2021/12/09 10:24:05;;;;;;;3.65;1.13;;;16.80;76.20;;;;;;4951212;28;95686;-42
2021/12/09 10:26:37;;;;;;;2.40;1.10;;;16.80;76.20;;;;;;4945987;28;96363;-42
2021/12/09 10:29:15;;;;;;;3.13;1.00;;;16.80;76.20;;;;;;4950509;28;97210;-44
2021/12/09 10:31:56;;;;;;;2.60;0.70;;;16.80;76.20;;;;;;4931834;28;96077;-41
2021/12/09 10:34:40;;;;;;;3.22;1.05;;;16.70;76.10;;;;;;4940694;28;95948;-44
2021/12/09 10:37:11;;;;;;;3.33;1.20;;;16.70;76.10;;;;;;4950346;28;96113;-43
2021/12/09 10:39:50;;;;;;;7.25;1.42;;;16.70;76.10;;;;;;4949211;28;98189;-39
2021/12/09 10:42:31;;;;;;;4.03;1.17;;;16.70;76.10;;;;;;4949233;28;95915;-44
2021/12/09 10:45:13;;;;;;;2.92;1.00;;;16.70;76.10;;;;;;4948059;28;96077;-44
2021/12/09 10:47:56;;;;;;;4.28;0.93;;;16.70;76.10;;;;;;4950818;28;95874;-43
2021/12/09 10:51:07;;;;;;;1.42;0.73;;;16.70;76.10;;;;;;4947066;28;95687;-40
2021/12/09 10:53:48;;;;;;;2.28;1.00;;;16.70;76.10;;;;;;4950992;28;95354;-40
2021/12/09 10:56:33;;;;;;;0.60;0.60;;;16.70;76.10;;;;;;4950007;28;95459;-45
2021/12/09 10:59:04;;;;;;;2.67;0.82;;;16.70;76.20;;;;;;4947798;28;96094;-40
2021/12/09 11:01:36;;;;;;;2.27;0.70;;;16.70;76.10;;;;;;4944321;28;95529;-42
2021/12/09 11:04:08;;;;;;;3.83;0.93;;;16.70;76.10;;;;;;4951157;28;95601;-40
2021/12/09 11:06:42;;;;;;;4.28;1.17;;;16.70;76.10;;;;;;4949137;28;96031;-43
2021/12/09 11:09:13;;;;;;;2.58;0.85;;;16.60;76.10;;;;;;4950296;28;96048;-44
2021/12/09 11:11:47;;;;;;;4.38;1.55;;;16.60;76.10;;;;;;4942105;28;95674;-42
2021/12/09 11:14:27;;;;;;;2.65;0.90;;;16.60;76.10;;;;;;4949433;28;95387;-40
2021/12/09 11:17:06;;;;;;;3.38;1.10;;;16.60;76.10;;;;;;4941907;28;95733;-43
2021/12/09 11:19:47;;;;;;;2.08;0.90;;;16.60;76.10;;;;;;4949042;28;99063;-45
2021/12/09 11:22:20;;;;;;;2.92;0.85;;;16.60;76.00;;;;;;4948137;28;95257;-45
2021/12/09 11:24:58;;;;;;;4.15;0.98;;;16.60;76.10;;;;;;4945365;28;95739;-42
2021/12/09 11:27:30;;;;;;;5.18;1.20;;;16.60;76.10;;;;;;4949035;28;95466;-45
2021/12/09 11:30:11;;;;;;;6.57;1.17;;;16.60;76.10;;;;;;4948268;28;96871;-40
2021/12/09 11:32:49;;;;;;;1.98;1.00;;;16.60;76.20;;;;;;4917696;28;102605;-42
2021/12/09 11:35:30;;;;;;;3.70;1.20;;;16.60;76.10;;;;;;4922744;28;96063;-43
2021/12/09 11:38:17;;;;;;;3.97;1.13;;;16.60;76.10;;;;;;4929866;28;95702;-39
2021/12/09 11:40:56;;;;;;;3.95;0.98;;;16.60;76.20;;;;;;4929421;28;96473;-41
2021/12/09 11:43:29;;;;;;;3.50;1.20;;;16.50;76.10;;;;;;4929135;28;95890;-43
2021/12/09 11:45:59;;;;;;;7.43;2.03;;;16.50;76.20;;;;;;4932354;28;95614;-41
2021/12/09 11:48:32;;;;;;;3.80;0.93;;;16.50;76.10;;;;;;4950198;28;95776;-41
2021/12/09 11:51:05;;;;;;;2.60;1.05;;;16.50;76.10;;;;;;4948402;28;95917;-38
2021/12/09 11:53:42;;;;;;;1.42;0.63;;;16.50;76.10;;;;;;4947818;28;96065;-42
2021/12/09 11:59:22;;;;;;;3.95;1.30;;;16.50;76.10;;;;;;4947364;28;96020;-38
2021/12/09 12:11:54;;;;;;;3.33;1.00;;;16.40;76.20;;;;;;4948749;28;95436;-40
2021/12/09 12:14:32;;;;;;;3.00;1.00;;;16.50;76.20;;;;;;4947324;28;95997;-41
2021/12/09 12:20:13;;;;;;;2.08;1.08;;;16.40;76.20;;;;;;4951619;28;95743;-43
2021/12/09 12:39:57;;;;;;;3.25;0.90;;;16.30;76.20;;;;;;4950990;28;96010;-43
2021/12/09 12:42:47;;;;;;;3.72;1.20;;;16.40;76.30;;;;;;4951786;28;95618;-42
2021/12/09 12:51:12;;;;;;;2.70;1.30;;;16.30;76.20;;;;;;4949190;28;95640;-43
2021/12/09 12:53:46;;;;;;;3.83;0.77;;;16.30;76.20;;;;;;4950765;28;95860;-42
2021/12/09 12:56:23;;;;;;;2.13;0.80;;;16.30;76.20;;;;;;4953275;28;95788;-40
2021/12/09 12:59:10;;;;;;;1.90;0.73;;;16.30;76.30;;;;;;4951257;28;95786;-41
2021/12/09 13:01:47;;;;;;;3.00;0.90;;;16.30;76.30;;;;;;4944988;28;95863;-42
2021/12/09 13:05:00;;;;;;;2.10;0.80;;;16.30;76.20;;;;;;4950919;28;95327;-41
2021/12/09 13:07:53;;;;;;;2.05;0.70;;;16.30;76.30;;;;;;4950747;28;95943;-44
2021/12/09 13:16:13;;;;;;;4.00;0.80;;;16.20;76.30;;;;;;4944524;28;96553;-44
2021/12/09 13:21:47;;;;;;;5.37;0.90;;;16.20;76.20;;;;;;4949903;28;96771;-45
2021/12/09 13:25:01;;;;;;;1.85;0.85;;;16.20;76.20;;;;;;4949789;28;95801;-44
2021/12/09 13:27:52;;;;;;;3.67;1.08;;;16.20;76.20;;;;;;4947341;28;97755;-45
2021/12/09 13:34:05;;;;;;;3.70;1.15;;;16.10;76.20;;;;;;4938412;28;96959;-43
2021/12/09 13:37:04;;;;;;;1.35;0.65;;;16.10;76.20;;;;;;4948001;28;96194;-41
2021/12/09 13:40:15;;;;;;;4.43;1.20;;;16.10;76.20;;;;;;4949465;28;96218;-40
2021/12/09 13:48:25;;;;;;;2.22;0.77;;;16.10;76.20;;;;;;4945546;28;102604;-43
2021/12/09 13:51:19;;;;;;;2.80;0.95;;;16.10;76.90;;;;;;4949404;28;95770;-44
2021/12/09 13:54:18;;;;;;;1.02;0.50;;;16.00;76.20;;;;;;4950690;28;95257;-41
2021/12/09 13:56:54;;;;;;;2.42;1.38;;;16.00;76.30;;;;;;4952082;28;96083;-43
2021/12/09 13:59:26;;;;;;;2.78;0.85;;;16.00;76.20;;;;;;4950204;28;95763;-41
2021/12/09 14:01:59;;;;;;;5.00;1.13;;;16.00;76.20;;;;;;4940914;28;95765;-39
2021/12/09 14:04:37;;;;;;;2.78;0.82;;;16.00;76.30;;;;;;4951308;28;95549;-40
2021/12/09 14:07:23;;;;;;;2.75;1.00;;;16.00;76.30;;;;;;4949815;28;96697;-42
2021/12/09 14:10:27;;;;;;;2.50;0.68;;;16.00;76.40;;;;;;4948404;28;95732;-42
2021/12/09 14:13:04;;;;;;;2.17;0.75;;;16.00;76.30;;;;;;4947488;28;95857;-42
2021/12/09 14:15:56;;;;;;;3.28;1.38;;;16.00;76.30;;;;;;4944389;28;95350;-39
2021/12/09 14:19:57;;;;;;;1.92;0.70;;;16.00;76.30;;;;;;4950219;28;96204;-41
2021/12/09 14:21:32;;;;;;;4.03;1.10;;;15.90;76.30;;;;;;4949821;28;96457;-42
2021/12/09 14:24:15;;;;;;;5.53;0.80;;;15.90;76.20;;;;;;4950233;28;95879;-42